FDA305 RJNA-RJFF
Flight info
| Callsign | FDA305 |
|---|---|
| Flight time | N/A |
| Altitude | 26000 |
| Route | TALMI HEIAN KAMMY Y20 KIRIN |
| Aircraft | E75L/M-SDFGILORVWY/H |
Departure
| Time | 2026-04-12 02:29 |
|---|---|
| Airport | Nagoya Airport / JASDF Komaki Air Base (RJNA) |
Arrival
| Time | N/A |
|---|---|
| Airport | Fukuoka Airport (RJFF) |
| Time | Latitude | Longitude | Altitude | Speed | Heading |
|---|---|---|---|---|---|
| 2026-04-12 01:22 | 35.25413 | 136.92192 | 48 ft | 0 kts | 332° |
| 2026-04-12 02:25 | 35.25415 | 136.92191 | 50 ft | 0 kts | 343° |
| 2026-04-12 02:25 | 35.25419 | 136.92195 | 47 ft | 1 kts | 46° |
| 2026-04-12 02:25 | 35.25416 | 136.92203 | 47 ft | 1 kts | 147° |
| 2026-04-12 02:26 | 35.25392 | 136.92212 | 49 ft | 5 kts | 133° |
| 2026-04-12 02:26 | 35.25402 | 136.92272 | 50 ft | 9 kts | 79° |
| 2026-04-12 02:26 | 35.25358 | 136.92333 | 46 ft | 13 kts | 152° |
| 2026-04-12 02:26 | 35.25250 | 136.92401 | 48 ft | 22 kts | 152° |
| 2026-04-12 02:27 | 35.25099 | 136.92498 | 50 ft | 26 kts | 153° |
| 2026-04-12 02:27 | 35.24931 | 136.92605 | 49 ft | 28 kts | 151° |
| 2026-04-12 02:27 | 35.24756 | 136.92716 | 49 ft | 29 kts | 152° |
| 2026-04-12 02:27 | 35.24582 | 136.92829 | 50 ft | 25 kts | 152° |
| 2026-04-12 02:28 | 35.24467 | 136.92927 | 47 ft | 18 kts | 123° |
| 2026-04-12 02:28 | 35.24445 | 136.93069 | 48 ft | 16 kts | 66° |
| 2026-04-12 02:28 | 35.24505 | 136.93106 | 48 ft | 5 kts | 331° |
| 2026-04-12 02:28 | 35.24647 | 136.93015 | 50 ft | 59 kts | 332° |
| 2026-04-12 02:29 | 35.25257 | 136.92629 | 49 ft | 136 kts | 333° |
| 2026-04-12 02:29 | 35.26189 | 136.92020 | 614 ft | 160 kts | 330° |
| 2026-04-12 02:29 | 35.27174 | 136.91354 | 1265 ft | 164 kts | 330° |
| 2026-04-12 02:29 | 35.28208 | 136.90682 | 2050 ft | 171 kts | 331° |
| 2026-04-12 02:30 | 35.29301 | 136.89972 | 2777 ft | 186 kts | 332° |
| 2026-04-12 02:30 | 35.30413 | 136.89029 | 3472 ft | 205 kts | 316° |
| 2026-04-12 02:30 | 35.31361 | 136.87617 | 4197 ft | 223 kts | 310° |
| 2026-04-12 02:30 | 35.32340 | 136.86045 | 4945 ft | 236 kts | 311° |
| 2026-04-12 02:31 | 35.33362 | 136.84421 | 5768 ft | 245 kts | 310° |
| 2026-04-12 02:31 | 35.34378 | 136.82799 | 6685 ft | 245 kts | 310° |
| 2026-04-12 02:31 | 35.35432 | 136.81119 | 7563 ft | 252 kts | 309° |
| 2026-04-12 02:31 | 35.36509 | 136.79399 | 8461 ft | 256 kts | 308° |
| 2026-04-12 02:32 | 35.37597 | 136.77658 | 9380 ft | 260 kts | 308° |
| 2026-04-12 02:32 | 35.38706 | 136.75878 | 10273 ft | 265 kts | 307° |
| 2026-04-12 02:32 | 35.39684 | 136.73943 | 11132 ft | 270 kts | 292° |
| 2026-04-12 02:32 | 35.40048 | 136.71651 | 11950 ft | 282 kts | 271° |
| 2026-04-12 02:33 | 35.39887 | 136.70042 | 12454 ft | 291 kts | 262° |
| 2026-04-12 02:33 | 35.39348 | 136.66740 | 13492 ft | 299 kts | 261° |
| 2026-04-12 02:33 | 35.39074 | 136.65079 | 13992 ft | 302 kts | 261° |
| 2026-04-12 02:33 | 35.38506 | 136.61674 | 14943 ft | 307 kts | 261° |
| 2026-04-12 02:34 | 35.38074 | 136.59138 | 15656 ft | 309 kts | 261° |
| 2026-04-12 02:34 | 35.37771 | 136.57396 | 16159 ft | 311 kts | 261° |
| 2026-04-12 02:34 | 35.37181 | 136.53931 | 17166 ft | 316 kts | 261° |
| 2026-04-12 02:34 | 35.36731 | 136.51289 | 17947 ft | 318 kts | 261° |
| 2026-04-12 02:35 | 35.36426 | 136.49515 | 18463 ft | 320 kts | 261° |
| 2026-04-12 02:35 | 35.35955 | 136.46837 | 19165 ft | 322 kts | 261° |
| 2026-04-12 02:35 | 35.35477 | 136.44136 | 19880 ft | 325 kts | 261° |
| 2026-04-12 02:35 | 35.34998 | 136.41417 | 20599 ft | 328 kts | 261° |
| 2026-04-12 02:36 | 35.34499 | 136.38662 | 21347 ft | 331 kts | 260° |
| 2026-04-12 02:36 | 35.34013 | 136.35900 | 22111 ft | 333 kts | 261° |
| 2026-04-12 02:36 | 35.33518 | 136.33129 | 22917 ft | 333 kts | 261° |
| 2026-04-12 02:36 | 35.33016 | 136.30359 | 23650 ft | 334 kts | 261° |
| 2026-04-12 02:37 | 35.32506 | 136.27559 | 24182 ft | 338 kts | 261° |
| 2026-04-12 02:37 | 35.31985 | 136.24745 | 24736 ft | 340 kts | 261° |
| 2026-04-12 02:37 | 35.31454 | 136.21914 | 25293 ft | 342 kts | 261° |
| 2026-04-12 02:37 | 35.30918 | 136.19084 | 25571 ft | 345 kts | 260° |
| 2026-04-12 02:38 | 35.30354 | 136.16225 | 25829 ft | 346 kts | 259° |
| 2026-04-12 02:38 | 35.29784 | 136.13344 | 26101 ft | 351 kts | 259° |
| 2026-04-12 02:38 | 35.29186 | 136.10373 | 26118 ft | 368 kts | 259° |
| 2026-04-12 02:38 | 35.28549 | 136.07288 | 26142 ft | 378 kts | 259° |
| 2026-04-12 02:39 | 35.27899 | 136.04147 | 26151 ft | 383 kts | 259° |
| 2026-04-12 02:39 | 35.27238 | 136.00969 | 26099 ft | 387 kts | 259° |
| 2026-04-12 02:39 | 35.26571 | 135.97779 | 26072 ft | 388 kts | 259° |
| 2026-04-12 02:39 | 35.25899 | 135.94574 | 26080 ft | 390 kts | 258° |
| 2026-04-12 02:40 | 35.25230 | 135.91344 | 26080 ft | 392 kts | 258° |
| 2026-04-12 02:40 | 35.24559 | 135.88113 | 26088 ft | 391 kts | 259° |
| 2026-04-12 02:40 | 35.23888 | 135.84884 | 26070 ft | 391 kts | 258° |
| 2026-04-12 02:40 | 35.23213 | 135.81655 | 26077 ft | 392 kts | 258° |
| 2026-04-12 02:41 | 35.22540 | 135.78429 | 26087 ft | 392 kts | 258° |
| 2026-04-12 02:41 | 35.21865 | 135.75202 | 26093 ft | 393 kts | 258° |
| 2026-04-12 02:41 | 35.21186 | 135.71955 | 26088 ft | 393 kts | 258° |
| 2026-04-12 02:41 | 35.20505 | 135.68716 | 26084 ft | 393 kts | 258° |
| 2026-04-12 02:42 | 35.19827 | 135.65482 | 26085 ft | 393 kts | 258° |
| 2026-04-12 02:42 | 35.19148 | 135.62248 | 26080 ft | 393 kts | 258° |
| 2026-04-12 02:42 | 35.18469 | 135.59023 | 26088 ft | 390 kts | 258° |
| 2026-04-12 02:43 | 35.17111 | 135.52580 | 26093 ft | 392 kts | 258° |
| 2026-04-12 02:43 | 35.16430 | 135.49353 | 26084 ft | 392 kts | 258° |
| 2026-04-12 02:43 | 35.15746 | 135.46122 | 26083 ft | 392 kts | 258° |
| 2026-04-12 02:43 | 35.15068 | 135.42938 | 26091 ft | 392 kts | 258° |
| 2026-04-12 02:44 | 35.14382 | 135.39707 | 26083 ft | 392 kts | 258° |
| 2026-04-12 02:44 | 35.13693 | 135.36475 | 26104 ft | 393 kts | 258° |
| 2026-04-12 02:44 | 35.13006 | 135.33245 | 26091 ft | 393 kts | 258° |
| 2026-04-12 02:44 | 35.12314 | 135.30004 | 26087 ft | 394 kts | 258° |
| 2026-04-12 02:45 | 35.11623 | 135.26762 | 26103 ft | 394 kts | 258° |
| 2026-04-12 02:45 | 35.10936 | 135.23529 | 26092 ft | 392 kts | 258° |
| 2026-04-12 02:45 | 35.10240 | 135.20295 | 26075 ft | 393 kts | 258° |
| 2026-04-12 02:45 | 35.09560 | 135.17103 | 26088 ft | 394 kts | 258° |
| 2026-04-12 02:46 | 35.08866 | 135.13863 | 26085 ft | 394 kts | 258° |
| 2026-04-12 02:46 | 35.08168 | 135.10626 | 26086 ft | 394 kts | 258° |
| 2026-04-12 02:46 | 35.07471 | 135.07390 | 26098 ft | 394 kts | 258° |
| 2026-04-12 02:46 | 35.06771 | 135.04149 | 26093 ft | 394 kts | 258° |
| 2026-04-12 02:47 | 35.06075 | 135.00916 | 26106 ft | 394 kts | 258° |
| 2026-04-12 02:47 | 35.05374 | 134.97671 | 26093 ft | 396 kts | 258° |
| 2026-04-12 02:47 | 35.04672 | 134.94423 | 26085 ft | 395 kts | 258° |
| 2026-04-12 02:47 | 35.03969 | 134.91180 | 26088 ft | 395 kts | 258° |
| 2026-04-12 02:48 | 35.03267 | 134.87925 | 26076 ft | 396 kts | 258° |
| 2026-04-12 02:48 | 35.02563 | 134.84686 | 26067 ft | 395 kts | 258° |
| 2026-04-12 02:48 | 35.01870 | 134.81486 | 26087 ft | 396 kts | 258° |
| 2026-04-12 02:48 | 35.01151 | 134.78198 | 26089 ft | 396 kts | 258° |
| 2026-04-12 02:49 | 35.00437 | 134.74952 | 26097 ft | 397 kts | 258° |
| 2026-04-12 02:49 | 34.99738 | 134.71732 | 26080 ft | 397 kts | 258° |
| 2026-04-12 02:49 | 34.99027 | 134.68473 | 26084 ft | 397 kts | 258° |
| 2026-04-12 02:49 | 34.98357 | 134.65212 | 26087 ft | 396 kts | 259° |
| 2026-04-12 02:50 | 34.97716 | 134.61935 | 26085 ft | 397 kts | 259° |
| 2026-04-12 02:50 | 34.97072 | 134.58660 | 26085 ft | 397 kts | 259° |
| 2026-04-12 02:50 | 34.96427 | 134.55389 | 26083 ft | 397 kts | 259° |
| 2026-04-12 02:50 | 34.95782 | 134.52120 | 26088 ft | 396 kts | 259° |
| 2026-04-12 02:51 | 34.95137 | 134.48859 | 26079 ft | 396 kts | 259° |
| 2026-04-12 02:51 | 34.94489 | 134.45586 | 26079 ft | 397 kts | 259° |
| 2026-04-12 02:51 | 34.93839 | 134.42311 | 26084 ft | 397 kts | 259° |
| 2026-04-12 02:51 | 34.93197 | 134.39075 | 26087 ft | 398 kts | 259° |
| 2026-04-12 02:52 | 34.92549 | 134.35792 | 26087 ft | 397 kts | 259° |
| 2026-04-12 02:52 | 34.91897 | 134.32519 | 26080 ft | 397 kts | 259° |
| 2026-04-12 02:52 | 34.91242 | 134.29253 | 26077 ft | 398 kts | 259° |
| 2026-04-12 02:52 | 34.90586 | 134.25979 | 26082 ft | 398 kts | 259° |
| 2026-04-12 02:53 | 34.89930 | 134.22705 | 26086 ft | 398 kts | 259° |
| 2026-04-12 02:53 | 34.89274 | 134.19430 | 26091 ft | 398 kts | 258° |
| 2026-04-12 02:53 | 34.87957 | 134.12880 | 26084 ft | 398 kts | 258° |
| 2026-04-12 02:54 | 34.87298 | 134.09607 | 26075 ft | 398 kts | 258° |
| 2026-04-12 02:54 | 34.86638 | 134.06333 | 26084 ft | 398 kts | 258° |
| 2026-04-12 02:54 | 34.85977 | 134.03059 | 26081 ft | 398 kts | 258° |
| 2026-04-12 02:54 | 34.85313 | 133.99784 | 26080 ft | 397 kts | 258° |
| 2026-04-12 02:55 | 34.84650 | 133.96510 | 26081 ft | 398 kts | 258° |
| 2026-04-12 02:55 | 34.83996 | 133.93290 | 26064 ft | 398 kts | 258° |
| 2026-04-12 02:55 | 34.83334 | 133.90033 | 26076 ft | 396 kts | 258° |
| 2026-04-12 02:55 | 34.82672 | 133.86773 | 26082 ft | 397 kts | 258° |
| 2026-04-12 02:56 | 34.82005 | 133.83513 | 26076 ft | 396 kts | 258° |
| 2026-04-12 02:56 | 34.81320 | 133.80258 | 26078 ft | 398 kts | 258° |
| 2026-04-12 02:56 | 34.80631 | 133.76997 | 26075 ft | 398 kts | 258° |
| 2026-04-12 02:56 | 34.79940 | 133.73727 | 26074 ft | 398 kts | 258° |
| 2026-04-12 02:57 | 34.79251 | 133.70467 | 26076 ft | 398 kts | 258° |
| 2026-04-12 02:57 | 34.78559 | 133.67193 | 26072 ft | 399 kts | 258° |
| 2026-04-12 02:57 | 34.77877 | 133.63976 | 26075 ft | 395 kts | 258° |
| 2026-04-12 02:57 | 34.77190 | 133.60734 | 26076 ft | 396 kts | 258° |
| 2026-04-12 02:58 | 34.76502 | 133.57501 | 26075 ft | 394 kts | 258° |
| 2026-04-12 02:58 | 34.75818 | 133.54262 | 26076 ft | 396 kts | 257° |
| 2026-04-12 02:58 | 34.75130 | 133.51020 | 26074 ft | 396 kts | 258° |
| 2026-04-12 02:58 | 34.74437 | 133.47778 | 26061 ft | 396 kts | 258° |
| 2026-04-12 02:59 | 34.73744 | 133.44534 | 26059 ft | 396 kts | 258° |
| 2026-04-12 02:59 | 34.73051 | 133.41288 | 26063 ft | 397 kts | 258° |
| 2026-04-12 02:59 | 34.72358 | 133.38049 | 26062 ft | 396 kts | 258° |
| 2026-04-12 02:59 | 34.71664 | 133.34815 | 26061 ft | 394 kts | 258° |
| 2026-04-12 03:00 | 34.70972 | 133.31593 | 26068 ft | 393 kts | 258° |
| 2026-04-12 03:00 | 34.70282 | 133.28379 | 26068 ft | 393 kts | 258° |
| 2026-04-12 03:00 | 34.69591 | 133.25164 | 26063 ft | 393 kts | 258° |
| 2026-04-12 03:00 | 34.68898 | 133.21945 | 26065 ft | 394 kts | 258° |
| 2026-04-12 03:01 | 34.68204 | 133.18723 | 26065 ft | 394 kts | 258° |
| 2026-04-12 03:01 | 34.67515 | 133.15532 | 26063 ft | 395 kts | 258° |
| 2026-04-12 03:01 | 34.66815 | 133.12298 | 26063 ft | 395 kts | 258° |
| 2026-04-12 03:01 | 34.66117 | 133.09070 | 26054 ft | 395 kts | 258° |
| 2026-04-12 03:02 | 34.65420 | 133.05873 | 26056 ft | 387 kts | 258° |
| 2026-04-12 03:02 | 34.64733 | 133.02710 | 26068 ft | 387 kts | 258° |
| 2026-04-12 03:02 | 34.64045 | 132.99534 | 26059 ft | 389 kts | 258° |
| 2026-04-12 03:02 | 34.63362 | 132.96394 | 26051 ft | 389 kts | 258° |
| 2026-04-12 03:03 | 34.62668 | 132.93208 | 26055 ft | 389 kts | 258° |
| 2026-04-12 03:03 | 34.61975 | 132.90032 | 26055 ft | 390 kts | 258° |
| 2026-04-12 03:03 | 34.61279 | 132.86845 | 26057 ft | 389 kts | 258° |
| 2026-04-12 03:03 | 34.60582 | 132.83665 | 26054 ft | 390 kts | 258° |
| 2026-04-12 03:04 | 34.59886 | 132.80489 | 26058 ft | 390 kts | 258° |
| 2026-04-12 03:04 | 34.59191 | 132.77313 | 26054 ft | 389 kts | 258° |
| 2026-04-12 03:04 | 34.58491 | 132.74133 | 26050 ft | 390 kts | 258° |
| 2026-04-12 03:04 | 34.57798 | 132.70997 | 26065 ft | 389 kts | 258° |
| 2026-04-12 03:05 | 34.57096 | 132.67814 | 26059 ft | 390 kts | 258° |
| 2026-04-12 03:05 | 34.56394 | 132.64642 | 26044 ft | 389 kts | 258° |
| 2026-04-12 03:05 | 34.55697 | 132.61468 | 26056 ft | 390 kts | 258° |
| 2026-04-12 03:05 | 34.54997 | 132.58277 | 26064 ft | 392 kts | 258° |
| 2026-04-12 03:06 | 34.54289 | 132.55084 | 26060 ft | 392 kts | 257° |
| 2026-04-12 03:06 | 34.53578 | 132.51887 | 26057 ft | 392 kts | 257° |
| 2026-04-12 03:06 | 34.52870 | 132.48710 | 26046 ft | 384 kts | 258° |
| 2026-04-12 03:06 | 34.52176 | 132.45591 | 26055 ft | 382 kts | 258° |
| 2026-04-12 03:07 | 34.51489 | 132.42515 | 26063 ft | 383 kts | 258° |
| 2026-04-12 03:07 | 34.50791 | 132.39401 | 26060 ft | 384 kts | 258° |
| 2026-04-12 03:07 | 34.50091 | 132.36273 | 26048 ft | 384 kts | 258° |
| 2026-04-12 03:07 | 34.49389 | 132.33139 | 26046 ft | 385 kts | 258° |
| 2026-04-12 03:08 | 34.48686 | 132.30006 | 26056 ft | 385 kts | 258° |
| 2026-04-12 03:08 | 34.47980 | 132.26877 | 26070 ft | 385 kts | 258° |
| 2026-04-12 03:08 | 34.47277 | 132.23743 | 26054 ft | 384 kts | 258° |
| 2026-04-12 03:08 | 34.46567 | 132.20616 | 26032 ft | 384 kts | 257° |
| 2026-04-12 03:09 | 34.45856 | 132.17497 | 26033 ft | 385 kts | 258° |
| 2026-04-12 03:09 | 34.45154 | 132.14371 | 26055 ft | 384 kts | 258° |
| 2026-04-12 03:09 | 34.44459 | 132.11287 | 26055 ft | 383 kts | 258° |
| 2026-04-12 03:09 | 34.43753 | 132.08166 | 26053 ft | 384 kts | 258° |
| 2026-04-12 03:10 | 34.43048 | 132.05050 | 26039 ft | 383 kts | 258° |
| 2026-04-12 03:10 | 34.42331 | 132.01942 | 26039 ft | 383 kts | 258° |
| 2026-04-12 03:10 | 34.41624 | 131.98838 | 26068 ft | 383 kts | 258° |
| 2026-04-12 03:10 | 34.40926 | 131.95717 | 26063 ft | 384 kts | 258° |
| 2026-04-12 03:11 | 34.40224 | 131.92592 | 26043 ft | 384 kts | 257° |
| 2026-04-12 03:11 | 34.39513 | 131.89471 | 26055 ft | 383 kts | 257° |
| 2026-04-12 03:11 | 34.38798 | 131.86360 | 26039 ft | 383 kts | 257° |
| 2026-04-12 03:11 | 34.38083 | 131.83253 | 26074 ft | 383 kts | 257° |
| 2026-04-12 03:12 | 34.37373 | 131.80136 | 26040 ft | 383 kts | 257° |
| 2026-04-12 03:12 | 34.36667 | 131.77061 | 26051 ft | 384 kts | 257° |
| 2026-04-12 03:12 | 34.35949 | 131.73941 | 26041 ft | 385 kts | 257° |
| 2026-04-12 03:12 | 34.35226 | 131.70816 | 26047 ft | 385 kts | 258° |
| 2026-04-12 03:13 | 34.34508 | 131.67686 | 26062 ft | 385 kts | 257° |
| 2026-04-12 03:13 | 34.33788 | 131.64567 | 26049 ft | 385 kts | 257° |
| 2026-04-12 03:13 | 34.33069 | 131.61446 | 26053 ft | 385 kts | 257° |
| 2026-04-12 03:13 | 34.32348 | 131.58327 | 26065 ft | 384 kts | 256° |
| 2026-04-12 03:14 | 34.31625 | 131.55206 | 26055 ft | 384 kts | 256° |
| 2026-04-12 03:14 | 34.30902 | 131.52092 | 26052 ft | 385 kts | 256° |
| 2026-04-12 03:14 | 34.30187 | 131.49016 | 26053 ft | 385 kts | 256° |
| 2026-04-12 03:14 | 34.29463 | 131.45899 | 26054 ft | 385 kts | 256° |
| 2026-04-12 03:15 | 34.28736 | 131.42776 | 26054 ft | 385 kts | 256° |
| 2026-04-12 03:15 | 34.28010 | 131.39663 | 26043 ft | 385 kts | 256° |
| 2026-04-12 03:15 | 34.27280 | 131.36546 | 26062 ft | 385 kts | 256° |
| 2026-04-12 03:15 | 34.26553 | 131.33432 | 26054 ft | 385 kts | 256° |
| 2026-04-12 03:16 | 34.25821 | 131.30302 | 25629 ft | 389 kts | 256° |
| 2026-04-12 03:16 | 34.25086 | 131.27168 | 25077 ft | 381 kts | 256° |
| 2026-04-12 03:16 | 34.24372 | 131.24122 | 24555 ft | 371 kts | 256° |
| 2026-04-12 03:16 | 34.23674 | 131.21147 | 24056 ft | 365 kts | 256° |
| 2026-04-12 03:17 | 34.22988 | 131.18222 | 23502 ft | 357 kts | 256° |
| 2026-04-12 03:17 | 34.22319 | 131.15395 | 22841 ft | 353 kts | 255° |
| 2026-04-12 03:17 | 34.21654 | 131.12564 | 22189 ft | 349 kts | 255° |
| 2026-04-12 03:17 | 34.20994 | 131.09760 | 21555 ft | 346 kts | 255° |
| 2026-04-12 03:18 | 34.20335 | 131.06968 | 20919 ft | 344 kts | 255° |
| 2026-04-12 03:18 | 34.19680 | 131.04194 | 20333 ft | 343 kts | 255° |
| 2026-04-12 03:18 | 34.19024 | 131.01424 | 19726 ft | 342 kts | 254° |
| 2026-04-12 03:18 | 34.18173 | 130.98742 | 19225 ft | 342 kts | 246° |
| 2026-04-12 03:19 | 34.17190 | 130.96111 | 18768 ft | 343 kts | 246° |
| 2026-04-12 03:19 | 34.16226 | 130.93466 | 18308 ft | 344 kts | 246° |
| 2026-04-12 03:19 | 34.15268 | 130.90819 | 17789 ft | 344 kts | 247° |
| 2026-04-12 03:19 | 34.14315 | 130.88172 | 17280 ft | 342 kts | 247° |
| 2026-04-12 03:20 | 34.13375 | 130.85545 | 16758 ft | 339 kts | 247° |
| 2026-04-12 03:20 | 34.12437 | 130.82947 | 16257 ft | 336 kts | 245° |
| 2026-04-12 03:20 | 34.11225 | 130.80592 | 15768 ft | 334 kts | 236° |
| 2026-04-12 03:20 | 34.09897 | 130.78300 | 15290 ft | 332 kts | 236° |
| 2026-04-12 03:21 | 34.08578 | 130.76026 | 14814 ft | 329 kts | 236° |
| 2026-04-12 03:21 | 34.07268 | 130.73767 | 14332 ft | 327 kts | 235° |
| 2026-04-12 03:21 | 34.05966 | 130.71525 | 13867 ft | 325 kts | 235° |
| 2026-04-12 03:21 | 34.04678 | 130.69305 | 13346 ft | 320 kts | 235° |
| 2026-04-12 03:22 | 34.03405 | 130.67114 | 12851 ft | 315 kts | 235° |
| 2026-04-12 03:22 | 34.02560 | 130.65660 | 12542 ft | 311 kts | 235° |
| 2026-04-12 03:22 | 34.01343 | 130.63566 | 12105 ft | 307 kts | 235° |
| 2026-04-12 03:22 | 34.00124 | 130.61467 | 11652 ft | 303 kts | 235° |
| 2026-04-12 03:23 | 33.99235 | 130.59208 | 11202 ft | 298 kts | 258° |
| 2026-04-12 03:23 | 33.99196 | 130.56728 | 10775 ft | 295 kts | 274° |
| 2026-04-12 03:23 | 33.99361 | 130.54278 | 10350 ft | 292 kts | 274° |
| 2026-04-12 03:23 | 33.99519 | 130.51842 | 9926 ft | 290 kts | 274° |
| 2026-04-12 03:24 | 33.99727 | 130.49435 | 9451 ft | 288 kts | 283° |
| 2026-04-12 03:24 | 34.00586 | 130.47282 | 8993 ft | 286 kts | 305° |
| 2026-04-12 03:24 | 34.01860 | 130.45445 | 8544 ft | 285 kts | 311° |
| 2026-04-12 03:24 | 34.03090 | 130.43581 | 8091 ft | 283 kts | 301° |
| 2026-04-12 03:25 | 34.03695 | 130.41347 | 7635 ft | 283 kts | 272° |
| 2026-04-12 03:25 | 34.03260 | 130.39061 | 7200 ft | 282 kts | 240° |
| 2026-04-12 03:25 | 34.01901 | 130.37390 | 6768 ft | 281 kts | 209° |
| 2026-04-12 03:25 | 34.00052 | 130.36713 | 6350 ft | 278 kts | 190° |
| 2026-04-12 03:26 | 33.98184 | 130.36250 | 5909 ft | 278 kts | 191° |
| 2026-04-12 03:26 | 33.96289 | 130.35786 | 5462 ft | 278 kts | 191° |
| 2026-04-12 03:26 | 33.94393 | 130.35317 | 5019 ft | 278 kts | 191° |
| 2026-04-12 03:26 | 33.92500 | 130.34848 | 4561 ft | 277 kts | 191° |
| 2026-04-12 03:27 | 33.90611 | 130.34376 | 4104 ft | 276 kts | 191° |
| 2026-04-12 03:27 | 33.88732 | 130.33902 | 3655 ft | 275 kts | 191° |
| 2026-04-12 03:27 | 33.86864 | 130.33429 | 3209 ft | 274 kts | 191° |
| 2026-04-12 03:27 | 33.84999 | 130.32953 | 2752 ft | 273 kts | 191° |
| 2026-04-12 03:28 | 33.83145 | 130.32472 | 2300 ft | 272 kts | 191° |
| 2026-04-12 03:28 | 33.81311 | 130.31997 | 2128 ft | 259 kts | 192° |
| 2026-04-12 03:28 | 33.79762 | 130.31265 | 2774 ft | 216 kts | 203° |
| 2026-04-12 03:28 | 33.78364 | 130.31030 | 4092 ft | 201 kts | 164° |
| 2026-04-12 03:29 | 33.77122 | 130.31706 | 5334 ft | 194 kts | 145° |
| 2026-04-12 03:29 | 33.76133 | 130.32778 | 6433 ft | 189 kts | 134° |